Time;durP1;ratioP1;P1;durP2;ratioP2;P2;SDS_P1;SDS_P2;PMS_P1;PMS_P2;Temp;Humidity;BMP_temperature;BMP_pressure;BME280_temperature;BME280_humidity;BME280_pressure;Samples;Min_cycle;Max_cycle;Signal;HPM_P1;HPM_P2
2021/02/17 09:53:45;;;;;;;2.5;1.9;;;;;;;10.64;100;95694.9;;;;
2021/02/17 09:54:46;;;;;;;2.5;1.9;;;;;;;10.64;100;95694.9;;;;
2021/02/17 09:55:47;;;;;;;2.5;1.9;;;;;;;10.64;100;95694.9;;;;
2021/02/17 09:56:48;;;;;;;2.5;1.9;;;;;;;10.64;100;95694.9;;;;
2021/02/17 09:58:24;;;;;;;2.35;1.9;;;;;;;11.41;100;95688.23;;;;
2021/02/17 09:59:25;;;;;;;2.35;1.9;;;;;;;11.41;100;95688.23;;;;
2021/02/17 10:00:36;;;;;;;2.35;1.9;;;;;;;11.41;100;95688.23;;;;
2021/02/17 10:01:36;;;;;;;2.35;1.9;;;;;;;11.41;100;95688.23;;;;
2021/02/17 10:02:37;;;;;;;2.35;1.9;;;;;;;11.41;100;95688.23;;;;
2021/02/17 10:03:38;;;;;;;2.35;1.9;;;;;;;11.41;100;95688.23;;;;
2021/02/17 10:04:39;;;;;;;2.35;1.9;;;;;;;11.41;100;95688.23;;;;
2021/02/17 10:05:40;;;;;;;2.35;1.9;;;;;;;11.41;100;95688.23;;;;
2021/02/17 10:06:41;;;;;;;2.35;1.9;;;;;;;11.41;100;95688.23;;;;
2021/02/17 10:07:42;;;;;;;2.35;1.9;;;;;;;11.41;100;95688.23;;;;
2021/02/17 10:08:44;;;;;;;2.55;1.8;;;;;;;13.04;100;95687.98;;;;
2021/02/17 10:09:45;;;;;;;2.55;1.8;;;;;;;13.04;100;95687.98;;;;
2021/02/17 10:10:45;;;;;;;2.55;1.8;;;;;;;13.04;100;95687.98;;;;
2021/02/17 10:11:46;;;;;;;2.55;1.8;;;;;;;13.04;100;95687.98;;;;
2021/02/17 10:12:47;;;;;;;2.55;1.8;;;;;;;13.04;100;95687.98;;;;
2021/02/17 10:13:48;;;;;;;2.55;1.8;;;;;;;13.04;100;95687.98;;;;
2021/02/17 10:14:49;;;;;;;2.55;1.8;;;;;;;13.04;100;95687.98;;;;
2021/02/17 10:15:49;;;;;;;2.55;1.8;;;;;;;13.04;100;95687.98;;;;
2021/02/17 10:16:50;;;;;;;2.55;1.8;;;;;;;13.04;100;95687.98;;;;
2021/02/17 10:17:51;;;;;;;2.55;1.8;;;;;;;13.04;100;95687.98;;;;
2021/02/17 10:18:52;;;;;;;3.9;1.8;;;;;;;13.39;100;95691.4;;;;
2021/02/17 10:19:53;;;;;;;3.9;1.8;;;;;;;13.39;100;95691.4;;;;
2021/02/17 10:20:53;;;;;;;3.9;1.8;;;;;;;13.39;100;95691.4;;;;
2021/02/17 10:21:54;;;;;;;3.9;1.8;;;;;;;13.39;100;95691.4;;;;
2021/02/17 10:22:54;;;;;;;3.9;1.8;;;;;;;13.39;100;95691.4;;;;
2021/02/17 10:23:56;;;;;;;3.9;1.8;;;;;;;13.39;100;95691.4;;;;
2021/02/17 10:24:56;;;;;;;3.9;1.8;;;;;;;13.39;100;95691.4;;;;
2021/02/17 10:25:57;;;;;;;3.9;1.8;;;;;;;13.39;100;95691.4;;;;
2021/02/17 10:26:57;;;;;;;3.9;1.8;;;;;;;13.39;100;95691.4;;;;
2021/02/17 10:27:59;;;;;;;3.9;1.8;;;;;;;13.39;100;95691.4;;;;
2021/02/17 10:28:59;;;;;;;3.9;1.8;;;;;;;13.39;100;95691.4;;;;
2021/02/17 10:30:00;;;;;;;3.75;1.9;;;;;;;13.83;100;95683.34;;;;
2021/02/17 10:31:01;;;;;;;3.75;1.9;;;;;;;13.83;100;95683.34;;;;
2021/02/17 10:32:01;;;;;;;3.75;1.9;;;;;;;13.83;100;95683.34;;;;
2021/02/17 10:33:02;;;;;;;3.75;1.9;;;;;;;13.83;100;95683.34;;;;
2021/02/17 10:34:03;;;;;;;3.75;1.9;;;;;;;13.83;100;95683.34;;;;
2021/02/17 10:35:03;;;;;;;3.75;1.9;;;;;;;13.83;100;95683.34;;;;
2021/02/17 10:36:06;;;;;;;3.75;1.9;;;;;;;13.83;100;95683.34;;;;
2021/02/17 10:37:07;;;;;;;3.75;1.9;;;;;;;13.83;100;95683.34;;;;
2021/02/17 10:38:07;;;;;;;3.75;1.9;;;;;;;13.83;100;95683.34;;;;
2021/02/17 10:39:08;;;;;;;3.75;1.9;;;;;;;13.83;100;95683.34;;;;
2021/02/17 10:40:08;;;;;;;3.05;1.95;;;;;;;13.56;100;95669.17;;;;
2021/02/17 10:41:10;;;;;;;3.05;1.95;;;;;;;13.56;100;95669.17;;;;
2021/02/17 10:42:11;;;;;;;3.05;1.95;;;;;;;13.56;100;95669.17;;;;
2021/02/17 10:43:14;;;;;;;3.05;1.95;;;;;;;13.56;100;95669.17;;;;
2021/02/17 10:44:14;;;;;;;3.05;1.95;;;;;;;13.56;100;95669.17;;;;
2021/02/17 10:45:15;;;;;;;3.05;1.95;;;;;;;13.56;100;95669.17;;;;
2021/02/17 10:46:18;;;;;;;3.05;1.95;;;;;;;13.56;100;95669.17;;;;
2021/02/17 10:47:18;;;;;;;3.05;1.95;;;;;;;13.56;100;95669.17;;;;
2021/02/17 10:48:19;;;;;;;3.05;1.95;;;;;;;13.56;100;95669.17;;;;
2021/02/17 10:49:19;;;;;;;3.05;1.95;;;;;;;13.56;100;95669.17;;;;
2021/02/17 10:50:20;;;;;;;3.05;1.95;;;;;;;13.56;100;95669.17;;;;
2021/02/17 10:51:21;;;;;;;2.900001;1.9;;;;;;;19.51;97.12109;95658.54;;;;
2021/02/17 10:52:21;;;;;;;2.900001;1.9;;;;;;;19.51;97.12109;95658.54;;;;
2021/02/17 10:53:22;;;;;;;2.900001;1.9;;;;;;;19.51;97.12109;95658.54;;;;
2021/02/17 10:54:23;;;;;;;2.900001;1.9;;;;;;;19.51;97.12109;95658.54;;;;
2021/02/17 10:55:23;;;;;;;2.900001;1.9;;;;;;;19.51;97.12109;95658.54;;;;
2021/02/17 10:56:24;;;;;;;2.900001;1.9;;;;;;;19.51;97.12109;95658.54;;;;
2021/02/17 10:57:24;;;;;;;2.900001;1.9;;;;;;;19.51;97.12109;95658.54;;;;
2021/02/17 10:58:25;;;;;;;2.900001;1.9;;;;;;;19.51;97.12109;95658.54;;;;
2021/02/17 10:59:25;;;;;;;2.900001;1.9;;;;;;;19.51;97.12109;95658.54;;;;
2021/02/17 11:00:26;;;;;;;2.900001;1.9;;;;;;;19.51;97.12109;95658.54;;;;
2021/02/17 11:01:26;;;;;;;3.6;1.9;;;;;;;25;76.10645;95651.96;;;;
2021/02/17 11:02:27;;;;;;;3.6;1.9;;;;;;;25;76.10645;95651.96;;;;
2021/02/17 11:03:27;;;;;;;3.6;1.9;;;;;;;25;76.10645;95651.96;;;;
2021/02/17 11:04:28;;;;;;;3.6;1.9;;;;;;;25;76.10645;95651.96;;;;
2021/02/17 11:05:28;;;;;;;3.6;1.9;;;;;;;25;76.10645;95651.96;;;;
2021/02/17 11:06:30;;;;;;;3.6;1.9;;;;;;;25;76.10645;95651.96;;;;
2021/02/17 11:07:30;;;;;;;3.6;1.9;;;;;;;25;76.10645;95651.96;;;;
2021/02/17 11:08:31;;;;;;;3.6;1.9;;;;;;;25;76.10645;95651.96;;;;
2021/02/17 11:09:31;;;;;;;3.6;1.9;;;;;;;25;76.10645;95651.96;;;;
2021/02/17 11:10:32;;;;;;;3.6;1.9;;;;;;;25;76.10645;95651.96;;;;
2021/02/17 11:11:33;;;;;;;3.6;1.9;;;;;;;25;76.10645;95651.96;;;;
2021/02/17 11:12:33;;;;;;;2.7;1.8;;;;;;;23.24;77.34082;95647.21;;;;
2021/02/17 11:13:34;;;;;;;2.7;1.8;;;;;;;23.24;77.34082;95647.21;;;;
2021/02/17 11:14:34;;;;;;;2.7;1.8;;;;;;;23.24;77.34082;95647.21;;;;
2021/02/17 11:15:34;;;;;;;2.7;1.8;;;;;;;23.24;77.34082;95647.21;;;;
2021/02/17 11:16:36;;;;;;;2.7;1.8;;;;;;;23.24;77.34082;95647.21;;;;
2021/02/17 11:17:37;;;;;;;2.7;1.8;;;;;;;23.24;77.34082;95647.21;;;;
2021/02/17 11:18:37;;;;;;;2.7;1.8;;;;;;;23.24;77.34082;95647.21;;;;
2021/02/17 11:19:38;;;;;;;2.7;1.8;;;;;;;23.24;77.34082;95647.21;;;;
2021/02/17 11:20:38;;;;;;;2.7;1.8;;;;;;;23.24;77.34082;95647.21;;;;
2021/02/17 11:21:39;;;;;;;2.7;1.8;;;;;;;23.24;77.34082;95647.21;;;;
2021/02/17 11:22:39;;;;;;;3;1.6;;;;;;;22.36;84.86719;95640.16;;;;
2021/02/17 11:23:40;;;;;;;3;1.6;;;;;;;22.36;84.86719;95640.16;;;;
2021/02/17 11:24:40;;;;;;;3;1.6;;;;;;;22.36;84.86719;95640.16;;;;
2021/02/17 11:25:41;;;;;;;3;1.6;;;;;;;22.36;84.86719;95640.16;;;;
2021/02/17 11:26:41;;;;;;;3;1.6;;;;;;;22.36;84.86719;95640.16;;;;
2021/02/17 11:27:42;;;;;;;3;1.6;;;;;;;22.36;84.86719;95640.16;;;;
2021/02/17 11:28:42;;;;;;;3;1.6;;;;;;;22.36;84.86719;95640.16;;;;
2021/02/17 11:29:45;;;;;;;3;1.6;;;;;;;22.36;84.86719;95640.16;;;;
2021/02/17 11:30:46;;;;;;;3;1.6;;;;;;;22.36;84.86719;95640.16;;;;
2021/02/17 11:31:46;;;;;;;3;1.6;;;;;;;22.36;84.86719;95640.16;;;;
2021/02/17 11:32:47;;;;;;;3;1.6;;;;;;;22.36;84.86719;95640.16;;;;
2021/02/17 11:33:47;;;;;;;3.2;1.7;;;;;;;20.71;83.78027;95635.38;;;;
2021/02/17 11:34:48;;;;;;;3.2;1.7;;;;;;;20.71;83.78027;95635.38;;;;
2021/02/17 11:35:49;;;;;;;3.2;1.7;;;;;;;20.71;83.78027;95635.38;;;;
2021/02/17 11:36:49;;;;;;;3.2;1.7;;;;;;;20.71;83.78027;95635.38;;;;
2021/02/17 11:37:50;;;;;;;3.2;1.7;;;;;;;20.71;83.78027;95635.38;;;;
2021/02/17 11:38:50;;;;;;;3.2;1.7;;;;;;;20.71;83.78027;95635.38;;;;
2021/02/17 11:39:50;;;;;;;3.2;1.7;;;;;;;20.71;83.78027;95635.38;;;;
2021/02/17 11:40:51;;;;;;;3.2;1.7;;;;;;;20.71;83.78027;95635.38;;;;
2021/02/17 11:41:52;;;;;;;3.2;1.7;;;;;;;20.71;83.78027;95635.38;;;;
2021/02/17 11:42:52;;;;;;;3.2;1.7;;;;;;;20.71;83.78027;95635.38;;;;
2021/02/17 11:43:53;;;;;;;2.8;1.6;;;;;;;19.05;93.06348;95629.32;;;;
2021/02/17 11:44:53;;;;;;;2.8;1.6;;;;;;;19.05;93.06348;95629.32;;;;
2021/02/17 11:45:54;;;;;;;2.8;1.6;;;;;;;19.05;93.06348;95629.32;;;;
2021/02/17 11:46:55;;;;;;;2.8;1.6;;;;;;;19.05;93.06348;95629.32;;;;
2021/02/17 11:47:56;;;;;;;2.8;1.6;;;;;;;19.05;93.06348;95629.32;;;;
2021/02/17 11:48:56;;;;;;;2.8;1.6;;;;;;;19.05;93.06348;95629.32;;;;
2021/02/17 11:49:57;;;;;;;2.8;1.6;;;;;;;19.05;93.06348;95629.32;;;;
2021/02/17 11:50:57;;;;;;;2.8;1.6;;;;;;;19.05;93.06348;95629.32;;;;
2021/02/17 11:51:57;;;;;;;2.8;1.6;;;;;;;19.05;93.06348;95629.32;;;;
2021/02/17 11:52:58;;;;;;;2.8;1.6;;;;;;;19.05;93.06348;95629.32;;;;
2021/02/17 11:53:58;;;;;;;2.8;1.6;;;;;;;19.05;93.06348;95629.32;;;;
2021/02/17 11:54:59;;;;;;;2.95;1.55;;;;;;;17.65;90.62012;95610.63;;;;
2021/02/17 11:56:01;;;;;;;2.95;1.55;;;;;;;17.65;90.62012;95610.63;;;;
2021/02/17 11:57:01;;;;;;;2.95;1.55;;;;;;;17.65;90.62012;95610.63;;;;
2021/02/17 11:58:02;;;;;;;2.95;1.55;;;;;;;17.65;90.62012;95610.63;;;;
2021/02/17 11:59:02;;;;;;;2.95;1.55;;;;;;;17.65;90.62012;95610.63;;;;
2021/02/17 12:00:03;;;;;;;2.95;1.55;;;;;;;17.65;90.62012;95610.63;;;;
2021/02/17 12:01:05;;;;;;;2.95;1.55;;;;;;;17.65;90.62012;95610.63;;;;
2021/02/17 12:02:06;;;;;;;2.95;1.55;;;;;;;17.65;90.62012;95610.63;;;;
2021/02/17 12:03:06;;;;;;;2.95;1.55;;;;;;;17.65;90.62012;95610.63;;;;
2021/02/17 12:04:07;;;;;;;2.95;1.55;;;;;;;17.65;90.62012;95610.63;;;;
2021/02/17 12:05:07;;;;;;;2.9;1.8;;;;;;;14.96;95.60938;95615.72;;;;
2021/02/17 12:06:09;;;;;;;2.9;1.8;;;;;;;14.96;95.60938;95615.72;;;;
2021/02/17 12:07:10;;;;;;;2.9;1.8;;;;;;;14.96;95.60938;95615.72;;;;
2021/02/17 12:08:10;;;;;;;2.9;1.8;;;;;;;14.96;95.60938;95615.72;;;;
2021/02/17 12:09:11;;;;;;;2.9;1.8;;;;;;;14.96;95.60938;95615.72;;;;
2021/02/17 12:10:11;;;;;;;2.9;1.8;;;;;;;14.96;95.60938;95615.72;;;;
2021/02/17 12:11:12;;;;;;;2.9;1.8;;;;;;;14.96;95.60938;95615.72;;;;
2021/02/17 12:12:13;;;;;;;2.9;1.8;;;;;;;14.96;95.60938;95615.72;;;;
2021/02/17 12:13:14;;;;;;;2.9;1.8;;;;;;;14.96;95.60938;95615.72;;;;
2021/02/17 12:14:14;;;;;;;2.9;1.8;;;;;;;14.96;95.60938;95615.72;;;;
2021/02/17 12:15:15;;;;;;;2.9;1.8;;;;;;;14.96;95.60938;95615.72;;;;
2021/02/17 12:16:15;;;;;;;3.8;1.95;;;;;;;13.14;100;95624.08;;;;
2021/02/17 12:17:16;;;;;;;3.8;1.95;;;;;;;13.14;100;95624.08;;;;
2021/02/17 12:18:17;;;;;;;3.8;1.95;;;;;;;13.14;100;95624.08;;;;
2021/02/17 12:19:18;;;;;;;3.8;1.95;;;;;;;13.14;100;95624.08;;;;
2021/02/17 12:20:19;;;;;;;3.8;1.95;;;;;;;13.14;100;95624.08;;;;
2021/02/17 12:21:20;;;;;;;3.8;1.95;;;;;;;13.14;100;95624.08;;;;
2021/02/17 12:22:20;;;;;;;3.8;1.95;;;;;;;13.14;100;95624.08;;;;
2021/02/17 12:23:21;;;;;;;3.8;1.95;;;;;;;13.14;100;95624.08;;;;
2021/02/17 12:24:22;;;;;;;3.8;1.95;;;;;;;13.14;100;95624.08;;;;
2021/02/17 12:25:22;;;;;;;3.8;1.95;;;;;;;13.14;100;95624.08;;;;
2021/02/17 12:26:23;;;;;;;3.8;1.95;;;;;;;13.14;100;95624.08;;;;
2021/02/17 12:27:23;;;;;;;3.1;1.5;;;;;;;12.22;100;95622.44;;;;
2021/02/17 12:28:24;;;;;;;3.1;1.5;;;;;;;12.22;100;95622.44;;;;
2021/02/17 12:29:25;;;;;;;3.1;1.5;;;;;;;12.22;100;95622.44;;;;
2021/02/17 12:30:25;;;;;;;3.1;1.5;;;;;;;12.22;100;95622.44;;;;
2021/02/17 12:31:26;;;;;;;3.1;1.5;;;;;;;12.22;100;95622.44;;;;
2021/02/17 12:32:26;;;;;;;3.1;1.5;;;;;;;12.22;100;95622.44;;;;
2021/02/17 12:33:27;;;;;;;3.1;1.5;;;;;;;12.22;100;95622.44;;;;
2021/02/17 12:34:27;;;;;;;3.1;1.5;;;;;;;12.22;100;95622.44;;;;
2021/02/17 12:35:28;;;;;;;3.1;1.5;;;;;;;12.22;100;95622.44;;;;
2021/02/17 12:36:28;;;;;;;3.1;1.5;;;;;;;12.22;100;95622.44;;;;
2021/02/17 12:37:29;;;;;;;3.15;1.5;;;;;;;12.23;100;95634.94;;;;
2021/02/17 12:38:29;;;;;;;3.15;1.5;;;;;;;12.23;100;95634.94;;;;
2021/02/17 12:39:30;;;;;;;3.15;1.5;;;;;;;12.23;100;95634.94;;;;
2021/02/17 12:40:30;;;;;;;3.15;1.5;;;;;;;12.23;100;95634.94;;;;
2021/02/17 12:41:31;;;;;;;3.15;1.5;;;;;;;12.23;100;95634.94;;;;
2021/02/17 12:42:32;;;;;;;3.15;1.5;;;;;;;12.23;100;95634.94;;;;
2021/02/17 12:43:33;;;;;;;3.15;1.5;;;;;;;12.23;100;95634.94;;;;
2021/02/17 12:44:34;;;;;;;3.15;1.5;;;;;;;12.23;100;95634.94;;;;
2021/02/17 12:46:03;;;;;;;3.15;1.5;;;;;;;12.23;100;95634.94;;;;
2021/02/17 12:57:30;;;;;;;1.5;1.3;;;;;;;14.39;100;95628.43;;;;
2021/02/17 12:58:32;;;;;;;2.3;1.2;;;;;;;14.91;100;95629.79;;;;
2021/02/17 12:59:33;;;;;;;2.3;1.2;;;;;;;14.91;100;95629.79;;;;
2021/02/17 13:00:33;;;;;;;2.3;1.2;;;;;;;14.91;100;95629.79;;;;
2021/02/17 13:01:34;;;;;;;2.3;1.2;;;;;;;14.91;100;95629.79;;;;
2021/02/17 13:02:34;;;;;;;2.3;1.2;;;;;;;14.91;100;95629.79;;;;
2021/02/17 13:03:35;;;;;;;2.3;1.2;;;;;;;14.91;100;95629.79;;;;
2021/02/17 13:04:35;;;;;;;2.3;1.2;;;;;;;14.91;100;95629.79;;;;
2021/02/17 13:05:36;;;;;;;2.3;1.2;;;;;;;14.91;100;95629.79;;;;
2021/02/17 13:06:36;;;;;;;2.3;1.2;;;;;;;14.91;100;95629.79;;;;
2021/02/17 13:07:37;;;;;;;2.3;1.2;;;;;;;14.91;100;95629.79;;;;
2021/02/17 13:08:37;;;;;;;2.3;1.2;;;;;;;14.91;100;95629.79;;;;
2021/02/17 13:09:38;;;;;;;1.7;1.2;;;;;;;18.79;90.1582;95630.91;;;;
2021/02/17 13:10:38;;;;;;;1.7;1.2;;;;;;;18.79;90.1582;95630.91;;;;
2021/02/17 13:11:38;;;;;;;1.7;1.2;;;;;;;18.79;90.1582;95630.91;;;;
2021/02/17 13:12:39;;;;;;;1.7;1.2;;;;;;;18.79;90.1582;95630.91;;;;
2021/02/17 13:13:39;;;;;;;1.7;1.2;;;;;;;18.79;90.1582;95630.91;;;;
2021/02/17 13:14:40;;;;;;;1.7;1.2;;;;;;;18.79;90.1582;95630.91;;;;
2021/02/17 13:15:40;;;;;;;1.7;1.2;;;;;;;18.79;90.1582;95630.91;;;;
2021/02/17 13:16:42;;;;;;;1.7;1.2;;;;;;;18.79;90.1582;95630.91;;;;
2021/02/17 13:17:43;;;;;;;1.7;1.2;;;;;;;18.79;90.1582;95630.91;;;;
2021/02/17 13:18:44;;;;;;;1.7;1.2;;;;;;;18.79;90.1582;95630.91;;;;
2021/02/17 13:19:44;;;;;;;1.7;1.2;;;;;;;18.79;90.1582;95630.91;;;;
2021/02/17 13:20:45;;;;;;;1.75;1.1;;;;;;;18.58;87.09766;95631.66;;;;
2021/02/17 13:21:46;;;;;;;1.75;1.1;;;;;;;18.58;87.09766;95631.66;;;;
2021/02/17 13:22:47;;;;;;;1.75;1.1;;;;;;;18.58;87.09766;95631.66;;;;
2021/02/17 13:23:48;;;;;;;1.75;1.1;;;;;;;18.58;87.09766;95631.66;;;;
2021/02/17 13:24:48;;;;;;;1.75;1.1;;;;;;;18.58;87.09766;95631.66;;;;
2021/02/17 13:25:49;;;;;;;1.75;1.1;;;;;;;18.58;87.09766;95631.66;;;;
2021/02/17 13:26:49;;;;;;;1.75;1.1;;;;;;;18.58;87.09766;95631.66;;;;
2021/02/17 13:27:50;;;;;;;1.75;1.1;;;;;;;18.58;87.09766;95631.66;;;;
2021/02/17 13:28:50;;;;;;;1.75;1.1;;;;;;;18.58;87.09766;95631.66;;;;
2021/02/17 13:29:51;;;;;;;1.75;1.1;;;;;;;18.58;87.09766;95631.66;;;;
2021/02/17 13:30:51;;;;;;;1.5;1;;;;;;;22.76;83.19922;95616.49;;;;
2021/02/17 13:31:52;;;;;;;1.5;1;;;;;;;22.76;83.19922;95616.49;;;;
2021/02/17 13:32:52;;;;;;;1.5;1;;;;;;;22.76;83.19922;95616.49;;;;
2021/02/17 13:33:53;;;;;;;1.5;1;;;;;;;22.76;83.19922;95616.49;;;;
2021/02/17 13:34:53;;;;;;;1.5;1;;;;;;;22.76;83.19922;95616.49;;;;
2021/02/17 13:35:54;;;;;;;1.5;1;;;;;;;22.76;83.19922;95616.49;;;;
2021/02/17 13:36:54;;;;;;;1.5;1;;;;;;;22.76;83.19922;95616.49;;;;
2021/02/17 13:37:55;;;;;;;1.5;1;;;;;;;22.76;83.19922;95616.49;;;;
2021/02/17 13:38:55;;;;;;;1.5;1;;;;;;;22.76;83.19922;95616.49;;;;
2021/02/17 13:39:56;;;;;;;1.5;1;;;;;;;22.76;83.19922;95616.49;;;;
2021/02/17 13:40:57;;;;;;;1.5;1;;;;;;;22.76;83.19922;95616.49;;;;
2021/02/17 13:41:58;;;;;;;1.95;0.9;;;;;;;20.8;79.16211;95608.94;;;;
2021/02/17 13:42:58;;;;;;;1.95;0.9;;;;;;;20.8;79.16211;95608.94;;;;
2021/02/17 13:43:59;;;;;;;1.95;0.9;;;;;;;20.8;79.16211;95608.94;;;;
2021/02/17 13:45:00;;;;;;;1.95;0.9;;;;;;;20.8;79.16211;95608.94;;;;
2021/02/17 13:46:00;;;;;;;1.95;0.9;;;;;;;20.8;79.16211;95608.94;;;;
2021/02/17 13:47:01;;;;;;;1.95;0.9;;;;;;;20.8;79.16211;95608.94;;;;
2021/02/17 13:48:01;;;;;;;1.95;0.9;;;;;;;20.8;79.16211;95608.94;;;;
2021/02/17 13:49:02;;;;;;;1.95;0.9;;;;;;;20.8;79.16211;95608.94;;;;
2021/02/17 13:50:02;;;;;;;1.95;0.9;;;;;;;20.8;79.16211;95608.94;;;;
2021/02/17 13:51:04;;;;;;;1.95;0.9;;;;;;;20.8;79.16211;95608.94;;;;
2021/02/17 13:52:04;;;;;;;1.25;0.9;;;;;;;18.78;82.85352;95597.78;;;;
2021/02/17 13:53:05;;;;;;;1.25;0.9;;;;;;;18.78;82.85352;95597.78;;;;
2021/02/17 13:54:05;;;;;;;1.25;0.9;;;;;;;18.78;82.85352;95597.78;;;;
2021/02/17 13:55:06;;;;;;;1.25;0.9;;;;;;;18.78;82.85352;95597.78;;;;
2021/02/17 13:56:08;;;;;;;1.25;0.9;;;;;;;18.78;82.85352;95597.78;;;;
2021/02/17 13:57:08;;;;;;;1.25;0.9;;;;;;;18.78;82.85352;95597.78;;;;
2021/02/17 13:58:09;;;;;;;1.25;0.9;;;;;;;18.78;82.85352;95597.78;;;;
2021/02/17 13:59:09;;;;;;;1.25;0.9;;;;;;;18.78;82.85352;95597.78;;;;
2021/02/17 14:00:10;;;;;;;1.25;0.9;;;;;;;18.78;82.85352;95597.78;;;;
2021/02/17 14:01:11;;;;;;;1.25;0.9;;;;;;;18.78;82.85352;95597.78;;;;
2021/02/17 14:02:14;;;;;;;1.25;0.9;;;;;;;18.78;82.85352;95597.78;;;;
2021/02/17 14:03:14;;;;;;;2.85;1.1;;;;;;;17.87;82.88086;95601.22;;;;
2021/02/17 14:04:14;;;;;;;2.85;1.1;;;;;;;17.87;82.88086;95601.22;;;;
2021/02/17 14:05:15;;;;;;;2.85;1.1;;;;;;;17.87;82.88086;95601.22;;;;
2021/02/17 14:06:16;;;;;;;2.85;1.1;;;;;;;17.87;82.88086;95601.22;;;;
2021/02/17 14:07:16;;;;;;;2.85;1.1;;;;;;;17.87;82.88086;95601.22;;;;
2021/02/17 14:08:17;;;;;;;2.85;1.1;;;;;;;17.87;82.88086;95601.22;;;;
2021/02/17 14:09:17;;;;;;;2.85;1.1;;;;;;;17.87;82.88086;95601.22;;;;
2021/02/17 14:10:18;;;;;;;2.85;1.1;;;;;;;17.87;82.88086;95601.22;;;;
2021/02/17 14:11:19;;;;;;;2.85;1.1;;;;;;;17.87;82.88086;95601.22;;;;
2021/02/17 14:12:20;;;;;;;2.85;1.1;;;;;;;17.87;82.88086;95601.22;;;;
2021/02/17 14:13:20;;;;;;;1.65;1;;;;;;;19.4;80.1709;95601.78;;;;
2021/02/17 14:14:21;;;;;;;1.65;1;;;;;;;19.4;80.1709;95601.78;;;;
2021/02/17 14:15:21;;;;;;;1.65;1;;;;;;;19.4;80.1709;95601.78;;;;
2021/02/17 14:16:22;;;;;;;1.65;1;;;;;;;19.4;80.1709;95601.78;;;;
2021/02/17 14:17:22;;;;;;;1.65;1;;;;;;;19.4;80.1709;95601.78;;;;
2021/02/17 14:18:23;;;;;;;1.65;1;;;;;;;19.4;80.1709;95601.78;;;;
2021/02/17 14:19:23;;;;;;;1.65;1;;;;;;;19.4;80.1709;95601.78;;;;
2021/02/17 14:20:24;;;;;;;1.65;1;;;;;;;19.4;80.1709;95601.78;;;;
2021/02/17 14:21:24;;;;;;;1.65;1;;;;;;;19.4;80.1709;95601.78;;;;
2021/02/17 14:22:25;;;;;;;1.65;1;;;;;;;19.4;80.1709;95601.78;;;;
2021/02/17 14:23:25;;;;;;;1.65;1;;;;;;;19.4;80.1709;95601.78;;;;
2021/02/17 14:24:26;;;;;;;1.85;1;;;;;;;21.12;76.70215;95599.52;;;;
2021/02/17 14:25:26;;;;;;;1.85;1;;;;;;;21.12;76.70215;95599.52;;;;
2021/02/17 14:26:27;;;;;;;1.85;1;;;;;;;21.12;76.70215;95599.52;;;;
2021/02/17 14:27:27;;;;;;;1.85;1;;;;;;;21.12;76.70215;95599.52;;;;
2021/02/17 14:28:28;;;;;;;1.85;1;;;;;;;21.12;76.70215;95599.52;;;;
2021/02/17 14:29:28;;;;;;;1.85;1;;;;;;;21.12;76.70215;95599.52;;;;
2021/02/17 14:30:29;;;;;;;1.85;1;;;;;;;21.12;76.70215;95599.52;;;;
2021/02/17 14:31:29;;;;;;;1.85;1;;;;;;;21.12;76.70215;95599.52;;;;
2021/02/17 14:32:30;;;;;;;1.85;1;;;;;;;21.12;76.70215;95599.52;;;;
2021/02/17 14:33:30;;;;;;;1.85;1;;;;;;;21.12;76.70215;95599.52;;;;
2021/02/17 14:34:31;;;;;;;1.85;1;;;;;;;21.12;76.70215;95599.52;;;;
2021/02/17 14:35:31;;;;;;;2.15;1.2;;;;;;;20.1;74.63672;95595.36;;;;
2021/02/17 14:36:32;;;;;;;2.15;1.2;;;;;;;20.1;74.63672;95595.36;;;;
2021/02/17 14:37:33;;;;;;;2.15;1.2;;;;;;;20.1;74.63672;95595.36;;;;
2021/02/17 14:38:33;;;;;;;2.15;1.2;;;;;;;20.1;74.63672;95595.36;;;;
2021/02/17 14:39:34;;;;;;;2.15;1.2;;;;;;;20.1;74.63672;95595.36;;;;
2021/02/17 14:40:35;;;;;;;2.15;1.2;;;;;;;20.1;74.63672;95595.36;;;;
2021/02/17 14:41:35;;;;;;;2.15;1.2;;;;;;;20.1;74.63672;95595.36;;;;
2021/02/17 14:42:36;;;;;;;2.15;1.2;;;;;;;20.1;74.63672;95595.36;;;;
2021/02/17 14:43:36;;;;;;;2.15;1.2;;;;;;;20.1;74.63672;95595.36;;;;
2021/02/17 14:44:37;;;;;;;2.15;1.2;;;;;;;20.1;74.63672;95595.36;;;;
2021/02/17 14:45:37;;;;;;;3.05;1.1;;;;;;;18.16;80.62012;95582.75;;;;
2021/02/17 14:46:40;;;;;;;3.05;1.1;;;;;;;18.16;80.62012;95582.75;;;;
2021/02/17 14:47:40;;;;;;;3.05;1.1;;;;;;;18.16;80.62012;95582.75;;;;
2021/02/17 14:48:41;;;;;;;3.05;1.1;;;;;;;18.16;80.62012;95582.75;;;;
2021/02/17 14:49:42;;;;;;;3.05;1.1;;;;;;;18.16;80.62012;95582.75;;;;
2021/02/17 14:50:43;;;;;;;3.05;1.1;;;;;;;18.16;80.62012;95582.75;;;;
2021/02/17 14:51:43;;;;;;;3.05;1.1;;;;;;;18.16;80.62012;95582.75;;;;
2021/02/17 14:52:44;;;;;;;3.05;1.1;;;;;;;18.16;80.62012;95582.75;;;;
2021/02/17 14:53:45;;;;;;;3.05;1.1;;;;;;;18.16;80.62012;95582.75;;;;
2021/02/17 14:54:45;;;;;;;3.05;1.1;;;;;;;18.16;80.62012;95582.75;;;;
2021/02/17 14:55:46;;;;;;;3.05;1.1;;;;;;;18.16;80.62012;95582.75;;;;
2021/02/17 14:56:46;;;;;;;2.15;1.25;;;;;;;18.36;77.3291;95586.83;;;;
2021/02/17 14:57:47;;;;;;;2.15;1.25;;;;;;;18.36;77.3291;95586.83;;;;
2021/02/17 14:58:48;;;;;;;2.15;1.25;;;;;;;18.36;77.3291;95586.83;;;;
2021/02/17 14:59:49;;;;;;;2.15;1.25;;;;;;;18.36;77.3291;95586.83;;;;
2021/02/17 15:00:50;;;;;;;2.15;1.25;;;;;;;18.36;77.3291;95586.83;;;;
2021/02/17 15:01:50;;;;;;;2.15;1.25;;;;;;;18.36;77.3291;95586.83;;;;
2021/02/17 15:02:51;;;;;;;2.15;1.25;;;;;;;18.36;77.3291;95586.83;;;;
2021/02/17 15:03:51;;;;;;;2.15;1.25;;;;;;;18.36;77.3291;95586.83;;;;
2021/02/17 15:04:52;;;;;;;2.15;1.25;;;;;;;18.36;77.3291;95586.83;;;;
2021/02/17 15:05:53;;;;;;;2.15;1.25;;;;;;;18.36;77.3291;95586.83;;;;
2021/02/17 15:06:53;;;;;;;3.3;1.3;;;;;;;16.2;83.81348;95591.38;;;;
2021/02/17 15:07:54;;;;;;;3.3;1.3;;;;;;;16.2;83.81348;95591.38;;;;
2021/02/17 15:08:54;;;;;;;3.3;1.3;;;;;;;16.2;83.81348;95591.38;;;;
2021/02/17 15:09:55;;;;;;;3.3;1.3;;;;;;;16.2;83.81348;95591.38;;;;
2021/02/17 15:10:55;;;;;;;3.3;1.3;;;;;;;16.2;83.81348;95591.38;;;;
2021/02/17 15:11:56;;;;;;;3.3;1.3;;;;;;;16.2;83.81348;95591.38;;;;
2021/02/17 15:12:56;;;;;;;3.3;1.3;;;;;;;16.2;83.81348;95591.38;;;;
2021/02/17 15:13:57;;;;;;;3.3;1.3;;;;;;;16.2;83.81348;95591.38;;;;
2021/02/17 15:14:58;;;;;;;3.3;1.3;;;;;;;16.2;83.81348;95591.38;;;;
2021/02/17 15:15:58;;;;;;;3.3;1.3;;;;;;;16.2;83.81348;95591.38;;;;
2021/02/17 15:16:59;;;;;;;3.3;1.3;;;;;;;16.2;83.81348;95591.38;;;;
2021/02/17 15:17:59;;;;;;;3.75;1.4;;;;;;;14.26;87.57617;95594;;;;
2021/02/17 15:19:00;;;;;;;3.75;1.4;;;;;;;14.26;87.57617;95594;;;;
2021/02/17 15:20:01;;;;;;;3.75;1.4;;;;;;;14.26;87.57617;95594;;;;
2021/02/17 15:21:02;;;;;;;3.75;1.4;;;;;;;14.26;87.57617;95594;;;;
2021/02/17 15:22:03;;;;;;;3.75;1.4;;;;;;;14.26;87.57617;95594;;;;
2021/02/17 15:23:04;;;;;;;3.75;1.4;;;;;;;14.26;87.57617;95594;;;;
2021/02/17 15:24:05;;;;;;;3.75;1.4;;;;;;;14.26;87.57617;95594;;;;
2021/02/17 15:25:06;;;;;;;3.75;1.4;;;;;;;14.26;87.57617;95594;;;;
2021/02/17 15:26:08;;;;;;;3.75;1.4;;;;;;;14.26;87.57617;95594;;;;
2021/02/17 15:27:09;;;;;;;3.75;1.4;;;;;;;14.26;87.57617;95594;;;;
2021/02/17 15:28:09;;;;;;;2.8;1.5;;;;;;;12.98;89.47754;95598.55;;;;
2021/02/17 15:29:10;;;;;;;2.8;1.5;;;;;;;12.98;89.47754;95598.55;;;;
2021/02/17 15:30:10;;;;;;;2.8;1.5;;;;;;;12.98;89.47754;95598.55;;;;
2021/02/17 15:31:13;;;;;;;2.8;1.5;;;;;;;12.98;89.47754;95598.55;;;;
2021/02/17 15:32:13;;;;;;;2.8;1.5;;;;;;;12.98;89.47754;95598.55;;;;
2021/02/17 15:33:14;;;;;;;2.8;1.5;;;;;;;12.98;89.47754;95598.55;;;;
2021/02/17 15:34:15;;;;;;;2.8;1.5;;;;;;;12.98;89.47754;95598.55;;;;
2021/02/17 15:35:17;;;;;;;2.8;1.5;;;;;;;12.98;89.47754;95598.55;;;;
2021/02/17 15:36:17;;;;;;;2.8;1.5;;;;;;;12.98;89.47754;95598.55;;;;
2021/02/17 15:37:18;;;;;;;2.8;1.5;;;;;;;12.98;89.47754;95598.55;;;;
2021/02/17 15:38:18;;;;;;;2.8;1.5;;;;;;;12.98;89.47754;95598.55;;;;
2021/02/17 15:39:19;;;;;;;2.7;1.65;;;;;;;12.06;92.47168;95597.46;;;;
2021/02/17 15:40:19;;;;;;;2.7;1.65;;;;;;;12.06;92.47168;95597.46;;;;
2021/02/17 15:41:20;;;;;;;2.7;1.65;;;;;;;12.06;92.47168;95597.46;;;;
2021/02/17 15:42:21;;;;;;;2.7;1.65;;;;;;;12.06;92.47168;95597.46;;;;
2021/02/17 15:43:21;;;;;;;2.7;1.65;;;;;;;12.06;92.47168;95597.46;;;;
2021/02/17 15:44:22;;;;;;;2.7;1.65;;;;;;;12.06;92.47168;95597.46;;;;
2021/02/17 15:45:22;;;;;;;2.7;1.65;;;;;;;12.06;92.47168;95597.46;;;;
2021/02/17 15:46:23;;;;;;;2.7;1.65;;;;;;;12.06;92.47168;95597.46;;;;
2021/02/17 15:47:24;;;;;;;2.7;1.65;;;;;;;12.06;92.47168;95597.46;;;;
2021/02/17 15:48:24;;;;;;;2.7;1.65;;;;;;;12.06;92.47168;95597.46;;;;
2021/02/17 15:49:25;;;;;;;3.1;1.4;;;;;;;11.25;94.87109;95594.7;;;;
2021/02/17 15:50:25;;;;;;;3.1;1.4;;;;;;;11.25;94.87109;95594.7;;;;
2021/02/17 15:51:26;;;;;;;3.1;1.4;;;;;;;11.25;94.87109;95594.7;;;;
2021/02/17 15:52:26;;;;;;;3.1;1.4;;;;;;;11.25;94.87109;95594.7;;;;
2021/02/17 15:53:27;;;;;;;3.1;1.4;;;;;;;11.25;94.87109;95594.7;;;;
2021/02/17 15:54:28;;;;;;;3.1;1.4;;;;;;;11.25;94.87109;95594.7;;;;
2021/02/17 15:55:28;;;;;;;3.1;1.4;;;;;;;11.25;94.87109;95594.7;;;;
2021/02/17 15:56:30;;;;;;;3.1;1.4;;;;;;;11.25;94.87109;95594.7;;;;
2021/02/17 15:57:30;;;;;;;3.1;1.4;;;;;;;11.25;94.87109;95594.7;;;;
2021/02/17 15:58:31;;;;;;;3.1;1.4;;;;;;;11.25;94.87109;95594.7;;;;
2021/02/17 15:59:31;;;;;;;3.1;1.4;;;;;;;11.25;94.87109;95594.7;;;;
2021/02/17 16:00:31;;;;;;;3.35;1.6;;;;;;;10.71;96.90332;95604.35;;;;
2021/02/17 16:01:32;;;;;;;3.35;1.6;;;;;;;10.71;96.90332;95604.35;;;;
2021/02/17 16:02:33;;;;;;;3.35;1.6;;;;;;;10.71;96.90332;95604.35;;;;
2021/02/17 16:03:33;;;;;;;3.35;1.6;;;;;;;10.71;96.90332;95604.35;;;;
2021/02/17 16:04:34;;;;;;;3.35;1.6;;;;;;;10.71;96.90332;95604.35;;;;